createdAt,value
2022-12-24T00:01:42.055Z,3.46
2022-12-24T00:04:11.177Z,3.35
2022-12-24T00:06:40.270Z,3.19
2022-12-24T00:09:10.417Z,3.02
2022-12-24T00:11:39.470Z,3.06
2022-12-24T00:14:08.568Z,3.10
2022-12-24T00:16:37.696Z,3.08
2022-12-24T00:19:08.136Z,2.94
2022-12-24T00:21:37.216Z,3.05
2022-12-24T00:24:06.977Z,3.05
2022-12-24T00:26:36.400Z,3.06
2022-12-24T00:29:06.676Z,3.17
2022-12-24T00:31:35.850Z,3.18
2022-12-24T00:34:04.879Z,3.26
2022-12-24T00:36:35.460Z,3.19
2022-12-24T00:39:04.753Z,3.31
2022-12-24T00:41:33.856Z,3.31
2022-12-24T00:44:06.065Z,3.20
2022-12-24T00:46:36.110Z,2.86
2022-12-24T00:49:06.097Z,2.86
2022-12-24T00:51:37.422Z,2.88
2022-12-24T00:54:07.615Z,2.77
2022-12-24T00:56:36.725Z,2.68
2022-12-24T00:59:05.783Z,2.60
2022-12-24T01:01:35.909Z,2.56
2022-12-24T01:04:19.118Z,2.86
2022-12-24T01:06:49.553Z,2.87
2022-12-24T01:09:18.662Z,2.90
2022-12-24T01:11:47.707Z,2.84
2022-12-24T01:14:16.727Z,2.80
2022-12-24T01:16:45.861Z,2.90
2022-12-24T01:19:14.918Z,3.05
2022-12-24T01:21:43.981Z,3.34
2022-12-24T01:24:17.262Z,3.36
2022-12-24T01:26:46.306Z,3.39
2022-12-24T01:29:15.385Z,3.32
2022-12-24T01:31:44.470Z,3.19
2022-12-24T01:34:13.564Z,3.15
2022-12-24T01:36:42.583Z,3.11
2022-12-24T01:39:11.713Z,3.06
2022-12-24T01:41:59.478Z,3.20
2022-12-24T01:44:36.632Z,3.07
2022-12-24T01:47:13.435Z,2.98
2022-12-24T01:49:48.008Z,3.05
2022-12-24T01:52:22.057Z,2.99
2022-12-24T01:54:56.473Z,3.35
2022-12-24T01:57:31.689Z,3.03
2022-12-24T02:00:07.688Z,2.72
2022-12-24T02:02:38.727Z,2.64
2022-12-24T02:05:13.904Z,2.59
2022-12-24T02:07:44.287Z,2.55
2022-12-24T02:10:16.284Z,2.66
2022-12-24T02:12:48.529Z,2.66
2022-12-24T02:15:20.270Z,2.87
2022-12-24T02:18:02.049Z,2.66
2022-12-24T02:20:52.860Z,2.79
2022-12-24T02:23:54.521Z,2.73
2022-12-24T02:26:43.153Z,2.55
2022-12-24T02:29:39.529Z,2.40
2022-12-24T02:32:16.089Z,2.45
2022-12-24T02:34:50.572Z,2.51
2022-12-24T02:37:24.498Z,2.51
2022-12-24T02:39:58.772Z,2.30
2022-12-24T02:42:34.190Z,2.59
2022-12-24T02:45:07.056Z,2.43
2022-12-24T02:47:39.206Z,2.43
2022-12-24T02:50:12.102Z,2.26
2022-12-24T02:52:43.986Z,2.19
2022-12-24T02:55:17.016Z,2.17
2022-12-24T02:58:26.382Z,2.22
2022-12-24T03:01:18.383Z,2.52
2022-12-24T03:04:05.409Z,2.49
2022-12-24T03:06:44.347Z,2.46
2022-12-24T03:09:21.099Z,2.34
2022-12-24T03:12:00.389Z,2.34
2022-12-24T03:14:30.718Z,2.26
2022-12-24T03:17:00.668Z,2.23
2022-12-24T03:19:32.709Z,2.45
2022-12-24T03:22:05.768Z,2.34
2022-12-24T03:24:34.896Z,2.13
2022-12-24T03:27:05.719Z,1.95
2022-12-24T03:29:35.061Z,1.67
2022-12-24T03:32:05.978Z,1.47
2022-12-24T03:34:36.510Z,1.44
2022-12-24T03:37:05.766Z,1.38
2022-12-24T03:39:34.992Z,1.35
2022-12-24T03:42:04.235Z,1.42
2022-12-24T03:44:33.240Z,1.55
2022-12-24T03:47:02.397Z,1.76
2022-12-24T03:49:31.867Z,1.45
2022-12-24T03:52:02.682Z,1.56
2022-12-24T03:54:32.017Z,1.47
2022-12-24T03:57:01.056Z,1.74
2022-12-24T03:59:30.167Z,1.47
2022-12-24T04:01:59.502Z,1.42
2022-12-24T04:04:28.718Z,1.42
2022-12-24T04:06:57.770Z,1.46
2022-12-24T04:09:28.243Z,1.46
2022-12-24T04:11:57.342Z,1.46
2022-12-24T04:14:26.589Z,1.40
2022-12-24T04:16:55.686Z,1.35
2022-12-24T04:19:24.788Z,1.31
2022-12-24T04:21:53.840Z,1.16
2022-12-24T04:24:23.020Z,1.11
2022-12-24T04:26:53.455Z,1.09
2022-12-24T04:29:22.736Z,1.08
2022-12-24T04:31:51.899Z,1.31
2022-12-24T04:34:20.988Z,1.62
2022-12-24T04:36:50.027Z,1.63
2022-12-24T04:39:19.122Z,1.44
2022-12-24T04:41:48.126Z,1.41
2022-12-24T04:44:18.577Z,1.76
2022-12-24T04:46:47.639Z,1.62
2022-12-24T04:49:16.756Z,1.74
2022-12-24T04:51:45.754Z,1.59
2022-12-24T04:54:14.836Z,1.65
2022-12-24T04:56:43.849Z,1.87
2022-12-24T04:59:12.930Z,1.98
2022-12-24T05:01:43.508Z,1.81
2022-12-24T05:04:12.680Z,1.70
2022-12-24T05:06:41.773Z,1.42
2022-12-24T05:09:10.749Z,1.31
2022-12-24T05:11:39.857Z,1.18
2022-12-24T05:14:08.857Z,1.04
2022-12-24T05:16:38.810Z,0.93
2022-12-24T05:19:09.266Z,0.84
2022-12-24T05:21:38.378Z,0.77
2022-12-24T05:24:25.959Z,0.86
2022-12-24T05:26:58.490Z,0.93
2022-12-24T05:29:27.614Z,1.03
2022-12-24T05:31:56.567Z,1.00
2022-12-24T05:34:27.047Z,1.09
2022-12-24T05:36:56.226Z,1.24
2022-12-24T05:39:25.420Z,1.03
2022-12-24T05:41:54.448Z,0.90
2022-12-24T05:44:23.552Z,0.99
2022-12-24T05:46:52.598Z,0.88
2022-12-24T05:49:21.672Z,0.95
2022-12-24T05:51:52.162Z,0.91
2022-12-24T05:54:21.319Z,0.86
2022-12-24T05:56:50.439Z,0.93
2022-12-24T05:59:19.437Z,0.84
2022-12-24T06:01:48.713Z,0.69
2022-12-24T06:04:21.668Z,0.79
2022-12-24T06:06:55.374Z,0.69
2022-12-24T06:09:24.431Z,0.70
2022-12-24T06:11:53.509Z,0.73
2022-12-24T06:14:22.548Z,0.88
2022-12-24T06:16:51.583Z,0.66
2022-12-24T06:19:20.837Z,0.98
2022-12-24T06:21:50.065Z,0.89
2022-12-24T06:24:21.497Z,0.75
2022-12-24T06:26:50.536Z,0.71
2022-12-24T06:29:19.600Z,0.66
2022-12-24T06:31:48.716Z,0.71
2022-12-24T06:34:17.833Z,0.68
2022-12-24T06:36:47.031Z,0.96
2022-12-24T06:39:16.288Z,0.80
2022-12-24T06:41:46.767Z,0.87
2022-12-24T06:44:15.802Z,0.72
2022-12-24T06:46:45.138Z,0.74
2022-12-24T06:49:14.211Z,0.59
2022-12-24T06:51:43.396Z,0.48
2022-12-24T06:54:12.430Z,0.73
2022-12-24T06:56:41.603Z,0.85
2022-12-24T06:59:12.056Z,0.79
2022-12-24T07:01:41.438Z,0.91
2022-12-24T07:04:16.204Z,0.80
2022-12-24T07:06:48.865Z,1.10
2022-12-24T07:09:17.957Z,1.05
2022-12-24T07:11:47.031Z,1.06
2022-12-24T07:14:17.524Z,0.90
2022-12-24T07:16:46.699Z,0.81
2022-12-24T07:19:16.489Z,0.75
2022-12-24T07:21:45.821Z,0.70
2022-12-24T07:24:14.884Z,0.91
2022-12-24T07:26:44.089Z,1.12
2022-12-24T07:29:13.228Z,1.26
2022-12-24T07:31:43.835Z,1.32
2022-12-24T07:34:12.934Z,1.18
2022-12-24T07:36:41.963Z,1.16
2022-12-24T07:39:11.189Z,1.35
2022-12-24T07:41:41.925Z,1.52
2022-12-24T07:44:13.813Z,1.66
2022-12-24T07:46:45.103Z,1.70
2022-12-24T07:49:14.291Z,1.73
2022-12-24T07:51:43.476Z,1.74
2022-12-24T07:54:12.675Z,1.74
2022-12-24T07:56:41.776Z,1.77
2022-12-24T07:59:13.582Z,1.82
2022-12-24T08:04:26.559Z,1.88
2022-12-24T08:06:55.627Z,1.86
2022-12-24T08:09:26.584Z,1.88
2022-12-24T08:11:55.674Z,1.88
2022-12-24T08:14:25.044Z,1.86
2022-12-24T08:16:54.146Z,2.02
2022-12-24T08:19:23.519Z,2.03
2022-12-24T08:21:56.029Z,2.17
2022-12-24T08:24:25.903Z,2.17
2022-12-24T08:26:54.961Z,2.20
2022-12-24T08:29:24.525Z,2.39
2022-12-24T08:31:53.887Z,2.62
2022-12-24T08:34:22.995Z,2.57
2022-12-24T08:36:53.454Z,2.45
2022-12-24T08:39:22.783Z,2.61
2022-12-24T08:41:52.009Z,2.69
2022-12-24T08:44:21.539Z,2.85
2022-12-24T08:46:50.658Z,2.62
2022-12-24T08:49:19.836Z,2.71
2022-12-24T08:51:49.179Z,2.89
2022-12-24T08:54:19.856Z,3.05
2022-12-24T08:56:48.961Z,3.16
2022-12-24T08:59:21.962Z,3.22
2022-12-24T09:01:51.194Z,3.28
2022-12-24T09:04:20.700Z,3.28
2022-12-24T09:06:49.775Z,3.37
2022-12-24T09:09:20.333Z,3.58
2022-12-24T09:11:49.397Z,3.70
2022-12-24T09:14:19.221Z,3.84
2022-12-24T09:16:48.444Z,3.87
2022-12-24T09:19:17.752Z,3.96
2022-12-24T09:21:46.910Z,4.11
2022-12-24T09:24:16.087Z,4.10
2022-12-24T09:26:55.513Z,3.93
2022-12-24T09:29:26.894Z,3.91
2022-12-24T09:31:57.964Z,4.07
2022-12-24T09:34:30.611Z,4.35
2022-12-24T09:37:02.519Z,4.33
2022-12-24T09:39:31.843Z,4.30
2022-12-24T09:42:18.619Z,4.29
2022-12-24T09:44:52.791Z,4.46
2022-12-24T09:47:29.227Z,4.44
2022-12-24T09:50:02.222Z,4.57
2022-12-24T09:52:36.369Z,4.66
2022-12-24T09:55:17.467Z,4.74
2022-12-24T09:57:51.727Z,4.95
2022-12-24T10:00:25.217Z,5.16
2022-12-24T10:02:54.489Z,5.25
2022-12-24T10:05:35.586Z,5.35
2022-12-24T10:08:19.746Z,5.46
2022-12-24T10:10:54.123Z,5.56
2022-12-24T10:13:49.994Z,5.65
2022-12-24T10:16:26.782Z,5.56
2022-12-24T10:19:04.416Z,5.56
2022-12-24T10:21:45.501Z,5.25
2022-12-24T10:24:20.146Z,5.11
2022-12-24T10:26:57.381Z,5.26
2022-12-24T10:29:31.893Z,5.66
2022-12-24T10:32:17.378Z,5.87
2022-12-24T10:34:52.707Z,6.09
2022-12-24T10:37:26.384Z,6.22
2022-12-24T10:39:56.718Z,6.19
2022-12-24T10:42:36.264Z,6.29
2022-12-24T10:45:09.461Z,6.40
2022-12-24T10:47:41.368Z,6.46
2022-12-24T10:50:20.023Z,6.46
2022-12-24T10:52:56.705Z,6.46
2022-12-24T10:55:28.257Z,6.47
2022-12-24T10:58:06.110Z,6.47
2022-12-24T11:00:39.516Z,6.61
2022-12-24T11:03:26.174Z,6.68
2022-12-24T11:06:21.243Z,6.65
2022-12-24T11:08:50.399Z,6.75
2022-12-24T11:11:23.561Z,6.88
2022-12-24T11:13:57.789Z,6.95
2022-12-24T11:16:33.427Z,6.98
2022-12-24T11:19:05.148Z,6.73
2022-12-24T11:21:39.236Z,7.14
2022-12-24T11:24:25.309Z,7.43
2022-12-24T11:27:18.459Z,7.65
2022-12-24T11:29:48.496Z,7.59
2022-12-24T11:32:22.777Z,7.68
2022-12-24T11:34:52.328Z,7.65
2022-12-24T11:37:25.296Z,7.55
2022-12-24T11:39:57.348Z,7.68
2022-12-24T11:42:33.966Z,7.64
2022-12-24T11:45:07.278Z,7.62
2022-12-24T11:47:43.603Z,7.77
2022-12-24T11:50:26.771Z,7.93
2022-12-24T11:53:17.259Z,8.05
2022-12-24T11:55:52.677Z,8.43
2022-12-24T11:58:29.966Z,8.78
2022-12-24T12:01:15.432Z,9.18
2022-12-24T12:03:50.626Z,9.42
2022-12-24T12:06:30.118Z,9.55
2022-12-24T12:09:06.791Z,9.63
2022-12-24T12:11:36.885Z,9.81
2022-12-24T12:14:06.509Z,10.03
2022-12-24T12:17:05.218Z,10.10
2022-12-24T12:19:47.232Z,10.07
2022-12-24T12:22:27.364Z,10.02
2022-12-24T12:24:59.979Z,10.00
2022-12-24T12:27:36.974Z,9.83
2022-12-24T12:30:15.561Z,9.71
2022-12-24T12:32:52.851Z,9.68
2022-12-24T12:35:27.481Z,9.60
2022-12-24T12:38:00.884Z,9.40
2022-12-24T12:41:03.507Z,9.35
2022-12-24T12:44:22.607Z,9.32
2022-12-24T12:47:11.129Z,9.25
2022-12-24T12:49:51.052Z,9.22
2022-12-24T12:52:42.193Z,9.20
2022-12-24T12:55:34.681Z,9.12
2022-12-24T12:58:13.651Z,9.02
2022-12-24T13:00:46.305Z,8.98
2022-12-24T13:03:47.260Z,8.87
2022-12-24T13:06:52.500Z,8.75
2022-12-24T13:09:46.641Z,8.78
2022-12-24T13:12:41.142Z,8.88
2022-12-24T13:15:37.717Z,8.96
2022-12-24T13:18:30.463Z,9.04
2022-12-24T13:20:59.767Z,9.07
2022-12-24T13:23:29.539Z,8.93
2022-12-24T13:26:00.708Z,8.74
2022-12-24T13:28:38.797Z,8.56
2022-12-24T13:31:29.903Z,8.44
2022-12-24T13:34:04.454Z,8.27
2022-12-24T13:37:04.329Z,8.17
2022-12-24T13:40:17.293Z,8.07
2022-12-24T13:43:10.091Z,7.87
2022-12-24T13:45:51.010Z,7.71
2022-12-24T13:48:30.433Z,7.62
2022-12-24T13:51:03.062Z,7.52
2022-12-24T13:53:35.266Z,7.46
2022-12-24T13:56:09.985Z,7.38
2022-12-24T13:58:43.978Z,7.28
2022-12-24T14:01:16.227Z,7.25
2022-12-24T14:03:49.073Z,7.19
2022-12-24T14:06:26.111Z,7.16
2022-12-24T14:08:58.344Z,7.08
2022-12-24T14:11:34.532Z,7.00
2022-12-24T14:14:29.871Z,7.00
2022-12-24T14:17:01.545Z,6.73
2022-12-24T14:19:40.219Z,6.53
2022-12-24T14:22:30.116Z,6.36
2022-12-24T14:25:02.687Z,6.62
2022-12-24T14:27:40.614Z,6.57
2022-12-24T14:30:22.883Z,6.93
2022-12-24T14:32:54.140Z,6.87
2022-12-24T14:35:26.948Z,6.65
2022-12-24T14:38:02.746Z,6.36
2022-12-24T14:40:39.936Z,6.11
2022-12-24T14:43:21.601Z,5.83
2022-12-24T14:46:01.435Z,5.56
2022-12-24T14:48:40.344Z,5.37
2022-12-24T14:51:18.231Z,5.21
2022-12-24T14:54:27.950Z,5.06
2022-12-24T14:57:26.323Z,5.00
2022-12-24T14:59:57.881Z,4.78
2022-12-24T15:02:47.637Z,4.74
2022-12-24T15:05:20.655Z,4.67
2022-12-24T15:07:57.612Z,4.43
2022-12-24T15:10:33.969Z,4.22
2022-12-24T15:13:06.895Z,4.04
2022-12-24T15:15:36.687Z,3.81
2022-12-24T15:18:07.479Z,3.58
2022-12-24T15:20:36.612Z,3.47
2022-12-24T15:23:06.746Z,3.42
2022-12-24T15:25:35.827Z,3.50
2022-12-24T15:28:15.430Z,3.48
2022-12-24T15:30:44.853Z,3.50
2022-12-24T15:33:15.509Z,3.55
2022-12-24T15:35:53.728Z,3.52
2022-12-24T15:38:34.280Z,3.63
2022-12-24T15:41:06.484Z,3.48
2022-12-24T15:43:41.445Z,3.42
2022-12-24T15:46:10.650Z,3.65
2022-12-24T15:48:46.402Z,3.43
2022-12-24T15:51:25.221Z,3.15
2022-12-24T15:54:02.426Z,3.25
2022-12-24T15:56:36.856Z,3.08
2022-12-24T15:59:32.042Z,2.94
2022-12-24T16:02:48.895Z,2.76
2022-12-24T16:05:35.809Z,2.65
2022-12-24T16:08:25.286Z,2.83
2022-12-24T16:11:09.178Z,2.82
2022-12-24T16:13:41.823Z,2.87
2022-12-24T16:16:14.393Z,2.85
2022-12-24T16:18:52.908Z,2.75
2022-12-24T16:21:29.502Z,2.87
2022-12-24T16:24:06.379Z,2.77
2022-12-24T16:26:36.256Z,2.87
2022-12-24T16:29:05.395Z,2.64
2022-12-24T16:31:38.014Z,2.59
2022-12-24T16:34:07.562Z,2.71
2022-12-24T16:36:38.004Z,2.66
2022-12-24T16:39:20.958Z,2.62
2022-12-24T16:42:07.846Z,2.24
2022-12-24T16:44:37.227Z,2.14
2022-12-24T16:47:08.663Z,2.22
2022-12-24T16:49:39.448Z,2.27
2022-12-24T16:52:18.256Z,2.25
2022-12-24T16:54:47.302Z,2.24
2022-12-24T16:57:16.644Z,2.25
2022-12-24T16:59:45.938Z,2.36
2022-12-24T17:02:18.406Z,2.43
2022-12-24T17:04:48.286Z,2.18
2022-12-24T17:07:21.592Z,2.22
2022-12-24T17:09:50.676Z,2.29
2022-12-24T17:12:21.407Z,2.35
2022-12-24T17:14:50.760Z,2.32
2022-12-24T17:17:25.805Z,2.10
2022-12-24T17:19:56.006Z,1.92
2022-12-24T17:22:27.822Z,1.87
2022-12-24T17:24:57.692Z,1.77
2022-12-24T17:27:26.783Z,1.77
2022-12-24T17:29:56.012Z,1.77
2022-12-24T17:32:27.439Z,1.71
2022-12-24T17:34:56.855Z,1.64
2022-12-24T17:37:27.517Z,1.59
2022-12-24T17:40:00.203Z,1.68
2022-12-24T17:42:29.411Z,1.64
2022-12-24T17:44:58.524Z,1.57
2022-12-24T17:47:27.557Z,1.46
2022-12-24T17:49:56.753Z,1.39
2022-12-24T17:52:27.199Z,1.48
2022-12-24T17:54:56.335Z,1.55
2022-12-24T17:57:25.412Z,1.53
2022-12-24T17:59:54.563Z,1.53
2022-12-24T18:02:23.780Z,1.57
2022-12-24T18:04:53.094Z,1.59
2022-12-24T18:07:22.240Z,1.67
2022-12-24T18:09:52.883Z,1.81
2022-12-24T18:12:22.024Z,1.84
2022-12-24T18:14:51.188Z,1.93
2022-12-24T18:17:20.463Z,1.93
2022-12-24T18:19:49.980Z,1.93
2022-12-24T18:22:19.159Z,1.79
2022-12-24T18:24:48.403Z,1.73
2022-12-24T18:27:19.096Z,1.73
2022-12-24T18:29:48.319Z,1.76
2022-12-24T18:32:18.092Z,1.95
2022-12-24T18:34:47.320Z,1.93
2022-12-24T18:37:16.489Z,1.90
2022-12-24T18:39:45.778Z,2.01
2022-12-24T18:42:15.619Z,1.92
2022-12-24T18:44:46.864Z,1.79
2022-12-24T18:47:16.340Z,1.74
2022-12-24T18:49:45.480Z,1.50
2022-12-24T18:52:22.451Z,1.52
2022-12-24T18:54:52.173Z,1.59
2022-12-24T18:57:21.354Z,1.74
2022-12-24T18:59:53.184Z,1.70
2022-12-24T19:02:22.321Z,1.76
2022-12-24T19:04:51.879Z,1.69
2022-12-24T19:07:20.984Z,1.75
2022-12-24T19:09:50.291Z,1.76
2022-12-24T19:12:22.502Z,1.77
2022-12-24T19:14:53.060Z,1.71
2022-12-24T19:17:22.304Z,1.75
2022-12-24T19:19:52.552Z,1.75
2022-12-24T19:22:21.734Z,1.77
2022-12-24T19:24:51.876Z,1.82
2022-12-24T19:27:21.246Z,1.95
2022-12-24T19:29:50.400Z,1.80
2022-12-24T19:32:21.075Z,1.69
2022-12-24T19:34:50.207Z,1.78
2022-12-24T19:37:19.328Z,1.71
2022-12-24T19:39:48.759Z,1.57
2022-12-24T19:42:18.106Z,1.61
2022-12-24T19:44:47.178Z,1.68
2022-12-24T19:47:16.511Z,1.81
2022-12-24T19:49:47.709Z,1.79
2022-12-24T19:52:16.963Z,1.84
2022-12-24T19:54:46.192Z,1.76
2022-12-24T19:57:15.277Z,1.80
2022-12-24T19:59:45.387Z,1.84
2022-12-24T20:02:14.810Z,1.95
2022-12-24T20:04:44.319Z,1.99
2022-12-24T20:07:14.896Z,2.04
2022-12-24T20:09:44.014Z,1.96
2022-12-24T20:12:13.181Z,1.86
2022-12-24T20:14:42.506Z,1.87
2022-12-24T20:17:12.184Z,1.95
2022-12-24T20:19:41.538Z,1.91
2022-12-24T20:22:10.951Z,1.95
2022-12-24T20:24:41.800Z,1.95
2022-12-24T20:27:11.717Z,1.99
2022-12-24T20:29:40.911Z,2.06
2022-12-24T20:32:10.049Z,2.17
2022-12-24T20:34:39.301Z,2.14
2022-12-24T20:37:08.848Z,2.03
2022-12-24T20:39:38.103Z,1.92
2022-12-24T20:42:08.791Z,1.99
2022-12-24T20:44:38.337Z,1.85
2022-12-24T20:47:07.486Z,1.92
2022-12-24T20:49:36.554Z,2.00
2022-12-24T20:52:06.238Z,1.86
2022-12-24T20:54:35.543Z,1.86
2022-12-24T20:57:05.148Z,1.78
2022-12-24T20:59:38.815Z,1.79
2022-12-24T21:02:09.088Z,1.91
2022-12-24T21:04:40.063Z,1.87
2022-12-24T21:07:09.730Z,1.80
2022-12-24T21:09:39.515Z,1.84
2022-12-24T21:12:29.388Z,2.00
2022-12-24T21:15:00.329Z,2.01
2022-12-24T21:17:30.330Z,1.97
2022-12-24T21:20:00.590Z,1.86
2022-12-24T21:22:29.823Z,1.80
2022-12-24T21:24:58.891Z,1.83
2022-12-24T21:27:30.228Z,1.91
2022-12-24T21:30:03.353Z,1.98
2022-12-24T21:32:32.855Z,1.96
2022-12-24T21:35:02.086Z,2.14
2022-12-24T21:37:31.314Z,2.08
2022-12-24T21:40:00.745Z,2.11
2022-12-24T21:42:32.609Z,2.11
2022-12-24T21:45:04.741Z,2.01
2022-12-24T21:47:35.241Z,1.93
2022-12-24T21:50:25.624Z,1.82
2022-12-24T21:53:19.703Z,1.91
2022-12-24T21:55:48.116Z,2.09
2022-12-24T21:58:18.619Z,2.22
2022-12-24T22:00:49.107Z,2.14
2022-12-24T22:03:18.255Z,2.32
2022-12-24T22:05:47.534Z,2.42
2022-12-24T22:08:33.999Z,2.42
2022-12-24T22:11:22.651Z,2.54
2022-12-24T22:13:51.767Z,2.62
2022-12-24T22:16:22.301Z,2.53
2022-12-24T22:18:52.155Z,2.57
2022-12-24T22:21:21.607Z,2.52
2022-12-24T22:23:50.947Z,2.45
2022-12-24T22:26:20.353Z,2.40
2022-12-24T22:28:49.704Z,2.35
2022-12-24T22:31:19.950Z,2.40
2022-12-24T22:33:50.721Z,2.49
2022-12-24T22:36:20.450Z,2.42
2022-12-24T22:38:49.584Z,2.38
2022-12-24T22:41:19.128Z,2.32
2022-12-24T22:43:50.158Z,2.29
2022-12-24T22:46:19.477Z,2.19
2022-12-24T22:48:50.144Z,2.19
2022-12-24T22:51:22.658Z,2.30
2022-12-24T22:53:51.768Z,2.27
2022-12-24T22:56:23.678Z,2.36
2022-12-24T22:58:55.348Z,2.31
2022-12-24T23:01:34.638Z,2.27
2022-12-24T23:04:08.197Z,2.28
2022-12-24T23:06:37.501Z,2.36
2022-12-24T23:09:09.234Z,2.46
2022-12-24T23:11:38.455Z,2.35
2022-12-24T23:14:25.053Z,2.29
2022-12-24T23:16:54.651Z,2.26
2022-12-24T23:19:25.195Z,2.28
2022-12-24T23:21:54.368Z,2.39
2022-12-24T23:24:23.745Z,2.42
2022-12-24T23:26:52.944Z,2.51
2022-12-24T23:29:22.488Z,2.42
2022-12-24T23:31:51.580Z,2.40
2022-12-24T23:34:20.723Z,2.44
2022-12-24T23:36:51.254Z,2.51
2022-12-24T23:39:20.476Z,2.49
2022-12-24T23:41:49.732Z,2.36
2022-12-24T23:44:19.325Z,2.36
2022-12-24T23:46:48.458Z,2.36
2022-12-24T23:49:17.750Z,2.55
2022-12-24T23:51:46.882Z,2.50
2022-12-24T23:54:17.546Z,2.62
2022-12-24T23:56:47.035Z,2.51
2022-12-24T23:59:16.120Z,2.49
